createdAt,value
2022-11-18T00:00:04.817Z,5.65
2022-11-18T00:02:45.244Z,5.56
2022-11-18T00:05:25.006Z,5.62
2022-11-18T00:08:07.192Z,5.42
2022-11-18T00:10:49.889Z,5.23
2022-11-18T00:13:46.878Z,5.27
2022-11-18T00:16:28.588Z,5.21
2022-11-18T00:19:07.979Z,5.36
2022-11-18T00:21:49.878Z,5.39
2022-11-18T00:24:29.558Z,5.35
2022-11-18T00:27:09.021Z,5.35
2022-11-18T00:30:00.604Z,5.43
2022-11-18T00:32:40.505Z,5.24
2022-11-18T00:35:20.203Z,5.24
2022-11-18T00:37:59.988Z,5.33
2022-11-18T00:40:41.874Z,5.28
2022-11-18T00:43:23.236Z,5.28
2022-11-18T00:46:03.234Z,5.32
2022-11-18T00:48:42.776Z,5.35
2022-11-18T00:51:22.244Z,5.34
2022-11-18T00:54:02.052Z,5.31
2022-11-18T00:56:43.876Z,5.34
2022-11-18T00:59:23.419Z,5.37
2022-11-18T01:02:03.038Z,5.24
2022-11-18T01:04:42.883Z,5.26
2022-11-18T01:07:22.748Z,5.28
2022-11-18T01:10:03.337Z,5.24
2022-11-18T01:13:01.417Z,5.17
2022-11-18T01:15:44.859Z,5.30
2022-11-18T01:18:26.637Z,5.21
2022-11-18T01:21:07.426Z,5.25
2022-11-18T01:23:47.168Z,5.11
2022-11-18T01:26:26.985Z,5.26
2022-11-18T01:29:06.850Z,5.23
2022-11-18T01:32:09.365Z,5.21
2022-11-18T01:34:48.843Z,5.24
2022-11-18T01:37:28.610Z,5.14
2022-11-18T01:40:10.022Z,5.07
2022-11-18T01:42:49.734Z,5.03
2022-11-18T01:45:34.152Z,5.06
2022-11-18T01:48:17.996Z,5.11
2022-11-18T01:51:02.221Z,5.19
2022-11-18T01:53:45.064Z,5.20
2022-11-18T01:56:29.940Z,5.12
2022-11-18T01:59:13.060Z,5.19
2022-11-18T02:01:59.671Z,5.22
2022-11-18T02:04:42.166Z,5.17
2022-11-18T02:07:23.881Z,5.14
2022-11-18T02:10:08.106Z,5.07
2022-11-18T02:12:50.333Z,5.11
2022-11-18T02:15:43.719Z,5.21
2022-11-18T02:18:32.044Z,5.19
2022-11-18T02:21:22.831Z,5.09
2022-11-18T02:24:20.422Z,5.15
2022-11-18T02:27:20.407Z,5.24
2022-11-18T02:30:04.845Z,5.30
2022-11-18T02:32:49.994Z,5.35
2022-11-18T02:35:31.269Z,5.16
2022-11-18T02:38:12.805Z,5.27
2022-11-18T02:40:55.815Z,5.33
2022-11-18T02:43:39.076Z,5.33
2022-11-18T02:46:26.482Z,5.29
2022-11-18T02:49:52.895Z,5.26
2022-11-18T02:52:34.635Z,5.17
2022-11-18T02:55:15.178Z,5.11
2022-11-18T02:57:58.476Z,5.06
2022-11-18T03:00:38.587Z,5.11
2022-11-18T03:03:28.060Z,5.10
2022-11-18T03:06:11.753Z,4.87
2022-11-18T03:08:58.656Z,5.02
2022-11-18T03:11:49.571Z,4.99
2022-11-18T03:14:36.971Z,5.00
2022-11-18T03:17:22.287Z,4.89
2022-11-18T03:20:11.900Z,4.97
2022-11-18T03:22:55.319Z,4.85
2022-11-18T03:25:38.988Z,4.71
2022-11-18T03:28:37.144Z,4.88
2022-11-18T03:31:20.126Z,4.72
2022-11-18T03:34:03.234Z,4.87
2022-11-18T03:36:51.774Z,4.89
2022-11-18T03:39:37.406Z,4.85
2022-11-18T03:42:20.246Z,4.89
2022-11-18T03:45:03.855Z,4.63
2022-11-18T03:47:44.623Z,4.72
2022-11-18T03:50:27.967Z,4.69
2022-11-18T03:53:08.482Z,4.75
2022-11-18T03:55:52.311Z,4.70
2022-11-18T03:58:35.300Z,4.67
2022-11-18T04:01:19.023Z,4.74
2022-11-18T04:04:01.566Z,4.77
2022-11-18T04:06:46.656Z,4.66
2022-11-18T04:09:31.250Z,4.71
2022-11-18T04:12:14.435Z,4.47
2022-11-18T04:14:55.426Z,4.41
2022-11-18T04:17:38.180Z,4.54
2022-11-18T04:20:19.591Z,4.51
2022-11-18T04:23:01.050Z,4.56
2022-11-18T04:25:40.371Z,4.61
2022-11-18T04:28:20.223Z,4.52
2022-11-18T04:31:00.025Z,4.44
2022-11-18T04:33:39.869Z,4.46
2022-11-18T04:36:19.952Z,4.33
2022-11-18T04:39:02.175Z,4.39
2022-11-18T04:41:57.541Z,4.35
2022-11-18T04:44:40.285Z,4.30
2022-11-18T04:47:22.474Z,4.43
2022-11-18T04:50:05.433Z,4.43
2022-11-18T04:52:45.635Z,4.38
2022-11-18T04:55:27.190Z,4.38
2022-11-18T04:58:06.933Z,4.29
2022-11-18T05:00:46.708Z,4.39
2022-11-18T05:03:28.503Z,4.25
2022-11-18T05:06:07.152Z,4.28
2022-11-18T05:08:49.738Z,4.14
2022-11-18T05:11:47.112Z,4.16
2022-11-18T05:14:27.963Z,4.10
2022-11-18T05:17:09.748Z,4.10
2022-11-18T05:19:49.355Z,4.22
2022-11-18T05:22:29.148Z,4.24
2022-11-18T05:25:11.297Z,4.14
2022-11-18T05:27:51.938Z,4.29
2022-11-18T05:30:31.870Z,4.07
2022-11-18T05:33:13.555Z,4.11
2022-11-18T05:35:55.246Z,4.16
2022-11-18T05:38:36.413Z,4.00
2022-11-18T05:41:32.250Z,4.01
2022-11-18T05:44:13.798Z,3.93
2022-11-18T05:46:53.046Z,3.82
2022-11-18T05:49:32.921Z,3.94
2022-11-18T05:52:14.664Z,3.94
2022-11-18T05:54:54.028Z,4.02
2022-11-18T05:57:33.831Z,3.82
2022-11-18T06:00:15.492Z,3.96
2022-11-18T06:02:56.023Z,3.94
2022-11-18T06:05:36.573Z,3.91
2022-11-18T06:08:17.931Z,3.82
2022-11-18T06:10:57.798Z,3.72
2022-11-18T06:13:42.704Z,3.70
2022-11-18T06:16:26.659Z,3.69
2022-11-18T06:19:06.928Z,3.73
2022-11-18T06:21:47.717Z,3.73
2022-11-18T06:24:26.834Z,3.76
2022-11-18T06:27:06.390Z,3.64
2022-11-18T06:29:45.961Z,3.64
2022-11-18T06:32:25.740Z,3.62
2022-11-18T06:35:06.416Z,3.67
2022-11-18T06:37:47.502Z,3.77
2022-11-18T06:40:27.363Z,3.86
2022-11-18T06:43:28.178Z,3.66
2022-11-18T06:46:28.278Z,3.76
2022-11-18T06:49:07.795Z,3.85
2022-11-18T06:51:47.617Z,3.85
2022-11-18T06:54:27.447Z,3.62
2022-11-18T06:57:07.250Z,3.71
2022-11-18T07:00:02.313Z,3.66
2022-11-18T07:02:42.151Z,3.37
2022-11-18T07:05:21.580Z,3.46
2022-11-18T07:08:01.506Z,3.53
2022-11-18T07:10:40.008Z,3.63
2022-11-18T07:13:19.524Z,3.58
2022-11-18T07:16:05.646Z,3.51
2022-11-18T07:18:46.647Z,3.46
2022-11-18T07:21:30.173Z,3.56
2022-11-18T07:24:12.400Z,3.19
2022-11-18T07:26:53.664Z,3.48
2022-11-18T07:29:34.432Z,3.43
2022-11-18T07:32:14.156Z,3.45
2022-11-18T07:34:52.764Z,3.37
2022-11-18T07:37:32.170Z,3.41
2022-11-18T07:40:11.758Z,3.35
2022-11-18T07:42:51.719Z,3.31
2022-11-18T07:45:37.931Z,3.33
2022-11-18T07:48:19.761Z,3.26
2022-11-18T07:51:01.375Z,3.39
2022-11-18T07:53:42.278Z,3.37
2022-11-18T07:56:22.576Z,3.21
2022-11-18T07:59:03.376Z,3.14
2022-11-18T08:01:45.284Z,3.21
2022-11-18T08:04:24.686Z,3.25
2022-11-18T08:07:04.608Z,3.31
2022-11-18T08:09:46.220Z,3.36
2022-11-18T08:12:25.648Z,3.21
2022-11-18T08:15:05.731Z,3.10
2022-11-18T08:17:45.282Z,3.20
2022-11-18T08:20:27.813Z,3.18
2022-11-18T08:23:10.146Z,3.19
2022-11-18T08:26:05.026Z,3.20
2022-11-18T08:28:46.292Z,3.24
2022-11-18T08:31:27.297Z,3.16
2022-11-18T08:34:08.488Z,3.11
2022-11-18T08:36:50.465Z,3.10
2022-11-18T08:39:29.855Z,2.88
2022-11-18T08:42:11.844Z,2.94
2022-11-18T08:44:51.142Z,2.95
2022-11-18T08:47:30.867Z,2.97
2022-11-18T08:50:12.756Z,2.85
2022-11-18T08:52:52.169Z,2.88
2022-11-18T08:55:46.052Z,2.80
2022-11-18T08:58:29.571Z,2.89
2022-11-18T09:01:14.759Z,2.72
2022-11-18T09:03:54.482Z,2.68
2022-11-18T09:06:35.595Z,2.85
2022-11-18T09:09:15.543Z,2.76
2022-11-18T09:11:54.067Z,2.79
2022-11-18T09:15:12.509Z,3.01
2022-11-18T09:17:36.250Z,3.00
2022-11-18T09:20:15.999Z,2.74
2022-11-18T09:22:55.389Z,2.89
2022-11-18T09:25:37.193Z,2.77
2022-11-18T09:28:18.568Z,2.73
2022-11-18T09:30:56.759Z,2.80
2022-11-18T09:33:36.289Z,2.75
2022-11-18T09:36:17.336Z,2.71
2022-11-18T09:39:00.611Z,2.58
2022-11-18T09:41:46.491Z,2.68
2022-11-18T09:44:40.701Z,2.53
2022-11-18T09:47:26.880Z,2.69
2022-11-18T09:50:41.814Z,2.80
2022-11-18T09:53:20.021Z,2.84
2022-11-18T09:56:14.059Z,2.52
2022-11-18T09:58:53.410Z,2.72
2022-11-18T10:01:33.334Z,2.78
2022-11-18T10:04:24.988Z,2.78
2022-11-18T10:07:14.217Z,2.57
2022-11-18T10:09:55.905Z,2.62
2022-11-18T10:12:42.843Z,2.67
2022-11-18T10:15:30.875Z,2.66
2022-11-18T10:18:44.805Z,2.69
2022-11-18T10:21:25.018Z,2.75
2022-11-18T10:24:11.538Z,2.58
2022-11-18T10:26:58.052Z,2.49
2022-11-18T10:29:40.285Z,2.57
2022-11-18T10:32:20.130Z,2.64
2022-11-18T10:35:00.003Z,2.60
2022-11-18T10:38:09.196Z,2.60
2022-11-18T10:40:46.631Z,2.43
2022-11-18T10:43:45.565Z,2.41
2022-11-18T10:46:28.375Z,2.23
2022-11-18T10:49:16.411Z,2.32
2022-11-18T10:52:10.148Z,2.37
2022-11-18T10:55:08.207Z,2.39
2022-11-18T10:57:49.290Z,2.07
2022-11-18T11:00:36.763Z,2.18
2022-11-18T11:03:28.876Z,2.36
2022-11-18T11:06:24.568Z,2.40
2022-11-18T11:09:09.819Z,2.17
2022-11-18T11:12:00.164Z,2.23
2022-11-18T11:14:50.681Z,2.07
2022-11-18T11:17:34.396Z,2.12
2022-11-18T11:20:19.409Z,2.27
2022-11-18T11:22:59.413Z,2.27
2022-11-18T11:28:51.124Z,2.12
2022-11-18T11:31:37.556Z,1.86
2022-11-18T11:34:26.698Z,2.10
2022-11-18T11:47:49.435Z,2.00
2022-11-18T11:51:01.585Z,2.09
2022-11-18T11:54:07.784Z,1.93
2022-11-18T11:56:50.197Z,2.04
2022-11-18T11:59:36.826Z,1.76
2022-11-18T12:02:35.918Z,1.92
2022-11-18T12:05:24.173Z,2.00
2022-11-18T12:08:07.746Z,2.08
2022-11-18T12:11:06.535Z,1.98
2022-11-18T12:13:51.757Z,1.98
2022-11-18T12:16:37.948Z,2.02
2022-11-18T12:19:20.234Z,1.85
2022-11-18T12:22:03.936Z,2.07
2022-11-18T12:24:44.329Z,1.96
2022-11-18T12:27:58.963Z,1.91
2022-11-18T12:30:41.735Z,2.07
2022-11-18T12:33:22.885Z,2.10
2022-11-18T12:36:05.991Z,2.06
2022-11-18T12:38:46.519Z,1.78
2022-11-18T12:42:14.250Z,2.08
2022-11-18T12:44:54.737Z,1.87
2022-11-18T12:47:59.311Z,1.96
2022-11-18T12:50:51.613Z,2.03
2022-11-18T12:53:43.559Z,2.05
2022-11-18T12:56:26.065Z,2.13
2022-11-18T12:59:06.071Z,2.11
2022-11-18T13:02:19.019Z,2.16
2022-11-18T13:05:13.151Z,2.12
2022-11-18T13:08:12.894Z,2.06
2022-11-18T13:11:18.330Z,1.99
2022-11-18T13:14:16.427Z,1.99
2022-11-18T13:17:15.997Z,1.76
2022-11-18T13:19:59.356Z,2.03
2022-11-18T13:23:08.276Z,1.99
2022-11-18T13:25:50.343Z,1.87
2022-11-18T13:28:34.783Z,1.93
2022-11-18T13:31:18.884Z,1.90
2022-11-18T13:34:01.967Z,1.93
2022-11-18T13:36:45.271Z,1.85
2022-11-18T13:39:26.457Z,1.82
2022-11-18T13:42:08.791Z,1.87
2022-11-18T13:44:54.840Z,1.66
2022-11-18T13:47:38.258Z,1.56
2022-11-18T13:50:23.971Z,1.53
2022-11-18T13:53:09.682Z,1.57
2022-11-18T13:55:52.977Z,1.57
2022-11-18T13:59:02.602Z,1.44
2022-11-18T14:01:40.146Z,1.54
2022-11-18T14:04:21.674Z,1.46
2022-11-18T14:07:23.101Z,1.37
2022-11-18T14:10:16.523Z,1.47
2022-11-18T14:13:00.709Z,1.47
2022-11-18T14:15:44.047Z,1.32
2022-11-18T14:18:31.316Z,1.42
2022-11-18T14:21:13.696Z,1.40
2022-11-18T14:23:53.104Z,1.38
2022-11-18T14:26:33.594Z,1.42
2022-11-18T14:29:21.220Z,1.28
2022-11-18T14:32:15.686Z,1.24
2022-11-18T14:35:15.655Z,1.29
2022-11-18T14:38:04.640Z,1.18
2022-11-18T14:40:57.719Z,1.27
2022-11-18T14:43:37.572Z,1.26
2022-11-18T14:46:21.572Z,1.23
2022-11-18T14:49:03.551Z,1.05
2022-11-18T14:51:43.228Z,1.01
2022-11-18T14:54:27.427Z,0.89
2022-11-18T14:57:07.659Z,0.94
2022-11-18T14:59:49.416Z,0.89
2022-11-18T15:02:28.899Z,0.85
2022-11-18T15:05:09.576Z,0.76
2022-11-18T15:07:50.149Z,0.71
2022-11-18T15:10:30.060Z,0.63
2022-11-18T15:13:09.613Z,0.74
2022-11-18T15:15:49.480Z,0.65
2022-11-18T15:18:29.274Z,0.69
2022-11-18T15:21:09.105Z,0.57
2022-11-18T15:23:51.228Z,0.54
2022-11-18T15:26:37.218Z,0.64
2022-11-18T15:29:20.573Z,0.60
2022-11-18T15:32:16.546Z,0.66
2022-11-18T15:34:55.907Z,0.63
2022-11-18T15:37:35.712Z,0.67
2022-11-18T15:40:18.227Z,0.54
2022-11-18T15:42:58.525Z,0.60
2022-11-18T15:45:40.683Z,0.59
2022-11-18T15:48:23.280Z,0.53
2022-11-18T15:51:06.360Z,0.55
2022-11-18T15:53:48.914Z,0.34
2022-11-18T15:56:30.512Z,0.40
2022-11-18T15:59:11.132Z,0.43
2022-11-18T16:01:54.350Z,0.33
2022-11-18T16:04:35.405Z,0.19
2022-11-18T16:07:15.972Z,0.44
2022-11-18T16:10:13.224Z,0.45
2022-11-18T16:12:53.892Z,0.40
2022-11-18T16:15:48.053Z,0.38
2022-11-18T16:18:28.760Z,0.30
2022-11-18T16:21:08.761Z,0.21
2022-11-18T16:23:48.572Z,0.13
2022-11-18T16:26:30.680Z,0.12
2022-11-18T16:29:15.704Z,0.09
2022-11-18T16:31:55.833Z,0.18
2022-11-18T16:34:39.289Z,0.23
2022-11-18T16:37:21.660Z,0.15
2022-11-18T16:40:03.772Z,0.19
2022-11-18T16:42:43.149Z,0.16
2022-11-18T16:45:22.965Z,0.21
2022-11-18T16:48:04.736Z,0.31
2022-11-18T16:50:44.075Z,0.28
2022-11-18T16:53:25.915Z,0.26
2022-11-18T16:56:07.467Z,0.28
2022-11-18T16:58:46.761Z,0.22
2022-11-18T17:01:29.598Z,0.21
2022-11-18T17:04:11.366Z,0.35
2022-11-18T17:06:51.811Z,0.34
2022-11-18T17:09:32.798Z,0.27
2022-11-18T17:12:12.131Z,0.20
2022-11-18T17:14:52.227Z,0.29
2022-11-18T17:17:31.756Z,0.18
2022-11-18T17:20:11.887Z,0.30
2022-11-18T17:22:52.915Z,0.27
2022-11-18T17:25:34.578Z,0.10
2022-11-18T17:28:14.288Z,0.12
2022-11-18T17:30:54.033Z,0.20
2022-11-18T17:33:34.018Z,0.16
2022-11-18T17:36:15.376Z,0.13
2022-11-18T17:38:56.673Z,0.36
2022-11-18T17:41:53.952Z,0.30
2022-11-18T17:44:35.971Z,0.06
2022-11-18T17:47:15.316Z,0.22
2022-11-18T17:49:55.071Z,0.26
2022-11-18T17:52:33.792Z,0.11
2022-11-18T17:55:15.654Z,0.10
2022-11-18T17:57:56.027Z,0.08
2022-11-18T18:00:37.147Z,0.08
2022-11-18T18:03:17.258Z,0.08
2022-11-18T18:06:03.355Z,0.05
2022-11-18T18:08:43.371Z,-0.05
2022-11-18T18:11:23.404Z,0.10
2022-11-18T18:14:13.740Z,-0.04
2022-11-18T18:16:54.027Z,0.02
2022-11-18T18:19:34.700Z,-0.05
2022-11-18T18:22:17.291Z,0.07
2022-11-18T18:24:56.536Z,0.14
2022-11-18T18:27:36.597Z,0.21
2022-11-18T18:30:17.161Z,0.17
2022-11-18T18:32:57.667Z,0.16
2022-11-18T18:35:40.503Z,0.18
2022-11-18T18:38:20.382Z,0.11
2022-11-18T18:41:02.268Z,0.12
2022-11-18T18:43:42.026Z,0.19
2022-11-18T18:46:36.589Z,0.09
2022-11-18T18:49:20.280Z,0.11
2022-11-18T18:52:02.218Z,0.14
2022-11-18T18:54:41.617Z,0.19
2022-11-18T18:57:21.445Z,0.18
2022-11-18T19:00:01.277Z,0.13
2022-11-18T19:02:43.021Z,0.08
2022-11-18T19:05:33.508Z,0.05
2022-11-18T19:08:23.156Z,0.00
2022-11-18T19:11:05.769Z,-0.04
2022-11-18T19:13:45.896Z,0.11
2022-11-18T19:16:25.668Z,0.08
2022-11-18T19:19:08.384Z,0.04
2022-11-18T19:21:49.913Z,0.03
2022-11-18T19:24:48.808Z,0.02
2022-11-18T19:27:30.820Z,0.08
2022-11-18T19:30:13.492Z,0.14
2022-11-18T19:32:55.698Z,0.15
2022-11-18T19:35:37.692Z,0.15
2022-11-18T19:38:29.654Z,0.01
2022-11-18T19:41:10.742Z,0.09
2022-11-18T19:43:52.731Z,0.15
2022-11-18T19:46:32.202Z,0.12
2022-11-18T19:49:12.000Z,0.21
2022-11-18T19:51:51.797Z,0.17
2022-11-18T19:54:31.596Z,0.21
2022-11-18T19:57:23.132Z,0.17
2022-11-18T20:00:03.471Z,0.07
2022-11-18T20:02:49.094Z,0.06
2022-11-18T20:05:53.441Z,-0.03
2022-11-18T20:08:34.519Z,0.05
2022-11-18T20:11:16.043Z,0.03
2022-11-18T20:13:55.598Z,0.05
2022-11-18T20:16:38.010Z,0.09
2022-11-18T20:19:20.977Z,0.00
2022-11-18T20:22:01.415Z,-0.06
2022-11-18T20:24:41.281Z,-0.15
2022-11-18T20:27:21.549Z,-0.08
2022-11-18T20:30:00.957Z,-0.15
2022-11-18T20:32:40.631Z,-0.11
2022-11-18T20:35:20.463Z,-0.22
2022-11-18T20:38:12.061Z,-0.06
2022-11-18T20:40:52.830Z,-0.20
2022-11-18T20:43:33.890Z,-0.23
2022-11-18T20:46:20.066Z,-0.18
2022-11-18T20:49:01.528Z,-0.26
2022-11-18T20:51:42.296Z,-0.18
2022-11-18T20:54:34.139Z,-0.40
2022-11-18T20:57:15.291Z,-0.51
2022-11-18T20:59:55.135Z,-0.54
2022-11-18T21:02:34.872Z,-0.49
2022-11-18T21:05:14.770Z,-0.61
2022-11-18T21:07:54.453Z,-0.58
2022-11-18T21:10:47.280Z,-0.52
2022-11-18T21:13:44.639Z,-0.56
2022-11-18T21:16:25.914Z,-0.64
2022-11-18T21:19:08.257Z,-0.67
2022-11-18T21:21:51.806Z,-0.59
2022-11-18T21:24:35.265Z,-0.62
2022-11-18T21:27:15.539Z,-0.65
2022-11-18T21:29:56.092Z,-0.66
2022-11-18T21:32:35.994Z,-0.66
2022-11-18T21:35:15.902Z,-0.61
2022-11-18T21:37:55.539Z,-0.59
2022-11-18T21:40:35.374Z,-0.65
2022-11-18T21:43:15.171Z,-0.82
2022-11-18T21:45:54.933Z,-0.80
2022-11-18T21:48:34.757Z,-0.72
2022-11-18T21:51:16.288Z,-0.79
2022-11-18T21:53:57.980Z,-0.71
2022-11-18T21:56:39.424Z,-0.74
2022-11-18T21:59:22.420Z,-0.93
2022-11-18T22:02:22.665Z,-0.88
2022-11-18T22:05:07.121Z,-0.81
2022-11-18T22:07:47.204Z,-0.74
2022-11-18T22:10:26.989Z,-0.83
2022-11-18T22:13:08.687Z,-0.90
2022-11-18T22:15:50.083Z,-1.00
2022-11-18T22:18:32.797Z,-1.08
2022-11-18T22:21:13.702Z,-1.00
2022-11-18T22:23:58.409Z,-1.15
2022-11-18T22:26:38.596Z,-1.10
2022-11-18T22:29:18.534Z,-1.13
2022-11-18T22:32:00.189Z,-1.07
2022-11-18T22:34:39.791Z,-1.08
2022-11-18T22:37:19.317Z,-1.02
2022-11-18T22:40:14.094Z,-1.05
2022-11-18T22:42:53.942Z,-1.14
2022-11-18T22:45:33.756Z,-1.11
2022-11-18T22:48:13.486Z,-1.17
2022-11-18T22:50:58.776Z,-1.11
2022-11-18T22:53:41.547Z,-1.25
2022-11-18T22:56:21.272Z,-1.14
2022-11-18T22:59:00.807Z,-1.24
2022-11-18T23:01:40.965Z,-1.19
2022-11-18T23:04:20.462Z,-1.26
2022-11-18T23:07:00.287Z,-1.32
2022-11-18T23:09:39.968Z,-1.29
2022-11-18T23:12:37.226Z,-1.40
2022-11-18T23:15:18.204Z,-1.40
2022-11-18T23:18:00.598Z,-1.49
2022-11-18T23:20:40.162Z,-1.45
2022-11-18T23:23:19.880Z,-1.46
2022-11-18T23:26:05.804Z,-1.48
2022-11-18T23:28:48.020Z,-1.62
2022-11-18T23:31:28.888Z,-1.70
2022-11-18T23:34:08.968Z,-1.68
2022-11-18T23:36:48.460Z,-1.70
2022-11-18T23:39:28.256Z,-1.73
2022-11-18T23:42:10.084Z,-1.69
2022-11-18T23:44:52.674Z,-1.65
2022-11-18T23:47:32.413Z,-1.77
2022-11-18T23:50:12.356Z,-1.82
2022-11-18T23:52:52.064Z,-1.92
2022-11-18T23:55:31.848Z,-1.84
2022-11-18T23:58:11.705Z,-2.04
